createdAt,value
2018-07-30T00:00:30.091Z,70.40
2018-07-30T00:01:30.153Z,66.91
2018-07-30T00:03:23.150Z,63.24
2018-07-30T00:04:23.217Z,63.92
2018-07-30T00:06:16.223Z,61.50
2018-07-30T00:07:16.283Z,61.21
2018-07-30T00:09:09.283Z,60.05
2018-07-30T00:10:09.349Z,61.50
2018-07-30T00:12:02.358Z,61.40
2018-07-30T00:13:02.415Z,61.11
2018-07-30T00:14:55.416Z,61.98
2018-07-30T00:15:55.479Z,61.60
2018-07-30T00:17:48.486Z,66.63
2018-07-30T00:18:48.548Z,66.91
2018-07-30T00:20:41.574Z,68.08
2018-07-30T00:21:41.934Z,63.92
2018-07-30T00:23:34.636Z,66.33
2018-07-30T00:24:34.704Z,66.05
2018-07-30T00:26:27.707Z,65.75
2018-07-30T00:27:27.767Z,65.08
2018-07-30T00:29:20.768Z,65.37
2018-07-30T00:30:20.828Z,65.17
2018-07-30T00:32:14.348Z,66.72
2018-07-30T00:33:14.407Z,66.05
2018-07-30T00:35:07.404Z,66.14
2018-07-30T00:36:07.475Z,65.85
2018-07-30T00:38:00.476Z,67.01
2018-07-30T00:39:00.538Z,66.53
2018-07-30T00:40:53.544Z,67.59
2018-07-30T00:41:53.604Z,67.79
2018-07-30T00:43:46.603Z,67.98
2018-07-30T00:44:46.669Z,67.11
2018-07-30T00:46:39.675Z,66.91
2018-07-30T00:47:39.737Z,67.01
2018-07-30T00:49:32.737Z,67.88
2018-07-30T00:50:32.804Z,67.49
2018-07-30T00:52:25.859Z,68.27
2018-07-30T00:53:25.921Z,68.56
2018-07-30T00:55:18.917Z,74.27
2018-07-30T00:56:18.985Z,71.94
2018-07-30T00:58:12.030Z,70.30
2018-07-30T00:59:12.051Z,69.01
2018-07-30T01:01:05.059Z,74.04
2018-07-30T01:02:05.122Z,72.88
2018-07-30T01:03:58.121Z,70.65
2018-07-30T01:04:58.188Z,72.78
2018-07-30T01:06:51.193Z,72.78
2018-07-30T01:07:51.251Z,72.10
2018-07-30T01:09:44.254Z,73.46
2018-07-30T01:10:44.321Z,76.45
2018-07-30T01:12:37.328Z,73.65
2018-07-30T01:13:37.400Z,73.74
2018-07-30T01:15:30.392Z,77.13
2018-07-30T01:16:30.456Z,77.80
2018-07-30T01:18:23.466Z,74.62
2018-07-30T01:19:23.520Z,75.39
2018-07-30T01:21:16.523Z,75.29
2018-07-30T01:22:16.584Z,73.16
2018-07-30T01:24:09.583Z,71.62
2018-07-30T01:25:09.648Z,72.00
2018-07-30T01:27:02.656Z,72.68
2018-07-30T01:28:02.715Z,71.72
2018-07-30T01:29:55.728Z,75.20
2018-07-30T01:30:55.779Z,74.32
2018-07-30T01:32:48.775Z,73.36
2018-07-30T01:33:48.840Z,74.04
2018-07-30T01:35:41.843Z,74.04
2018-07-30T01:36:41.914Z,71.91
2018-07-30T01:38:34.922Z,73.90
2018-07-30T01:39:34.985Z,75.26
2018-07-30T01:41:27.991Z,74.48
2018-07-30T01:42:28.056Z,73.07
2018-07-30T01:44:21.047Z,72.94
2018-07-30T01:45:21.122Z,72.84
2018-07-30T01:47:14.122Z,75.48
2018-07-30T01:48:14.181Z,76.35
2018-07-30T01:50:07.180Z,76.45
2018-07-30T01:51:07.248Z,73.94
2018-07-30T01:53:00.251Z,74.81
2018-07-30T01:54:00.311Z,75.87
2018-07-30T01:55:53.310Z,76.84
2018-07-30T01:56:53.377Z,75.16
2018-07-30T01:58:46.379Z,75.54
2018-07-30T01:59:46.442Z,76.22
2018-07-30T02:01:39.455Z,75.26
2018-07-30T02:02:39.519Z,75.06
2018-07-30T02:04:32.517Z,78.15
2018-07-30T02:05:32.588Z,78.06
2018-07-30T02:07:25.594Z,78.44
2018-07-30T02:08:25.669Z,77.48
2018-07-30T02:10:18.649Z,78.64
2018-07-30T02:11:18.716Z,78.15
2018-07-30T02:13:11.730Z,78.50
2018-07-30T02:14:11.787Z,78.25
2018-07-30T02:16:04.783Z,78.02
2018-07-30T02:17:04.876Z,78.79
2018-07-30T02:18:57.853Z,78.69
2018-07-30T02:19:57.913Z,78.89
2018-07-30T02:21:50.974Z,78.50
2018-07-30T02:22:50.980Z,78.50
2018-07-30T02:24:43.980Z,78.99
2018-07-30T02:25:44.044Z,77.98
2018-07-30T02:27:37.050Z,78.75
2018-07-30T02:28:37.102Z,77.78
2018-07-30T02:30:30.112Z,78.08
2018-07-30T02:31:30.172Z,77.78
2018-07-30T02:33:23.179Z,78.36
2018-07-30T02:34:23.246Z,76.24
2018-07-30T02:36:16.235Z,72.86
2018-07-30T02:37:16.309Z,69.68
2018-07-30T02:39:09.313Z,75.18
2018-07-30T02:40:09.371Z,74.21
2018-07-30T02:42:02.381Z,71.90
2018-07-30T02:43:02.443Z,68.23
2018-07-30T02:44:55.441Z,72.67
2018-07-30T02:45:55.505Z,66.36
2018-07-30T02:47:48.517Z,70.22
2018-07-30T02:48:48.578Z,69.97
2018-07-30T02:50:41.570Z,69.93
2018-07-30T02:51:41.632Z,68.52
2018-07-30T02:53:34.651Z,69.20
2018-07-30T02:54:34.701Z,70.06
2018-07-30T02:56:27.697Z,69.68
2018-07-30T02:57:27.789Z,72.28
2018-07-30T02:59:20.766Z,72.86
2018-07-30T03:00:20.828Z,73.63
2018-07-30T03:02:13.836Z,73.54
2018-07-30T03:03:13.892Z,73.93
2018-07-30T03:05:06.892Z,74.31
2018-07-30T03:06:06.954Z,76.24
2018-07-30T03:07:59.958Z,75.09
2018-07-30T03:09:00.018Z,75.27
2018-07-30T03:10:53.011Z,74.41
2018-07-30T03:11:53.079Z,76.82
2018-07-30T03:13:46.081Z,77.11
2018-07-30T03:14:46.142Z,76.72
2018-07-30T03:16:39.139Z,77.46
2018-07-30T03:17:39.207Z,75.24
2018-07-30T03:19:32.224Z,75.37
2018-07-30T03:20:32.266Z,75.82
2018-07-30T03:22:25.274Z,76.20
2018-07-30T03:23:25.334Z,73.89
2018-07-30T03:25:18.333Z,71.77
2018-07-30T03:26:18.397Z,75.14
2018-07-30T03:28:11.408Z,74.76
2018-07-30T03:29:11.463Z,75.05
2018-07-30T03:31:04.456Z,75.34
2018-07-30T03:32:04.519Z,75.30
2018-07-30T03:33:57.530Z,75.10
2018-07-30T03:34:57.589Z,76.01
2018-07-30T03:36:50.583Z,75.92
2018-07-30T03:37:50.650Z,76.07
2018-07-30T03:39:43.653Z,75.01
2018-07-30T03:40:43.711Z,75.97
2018-07-30T03:42:36.714Z,75.10
2018-07-30T03:43:36.773Z,74.91
2018-07-30T03:45:29.769Z,73.66
2018-07-30T03:46:29.835Z,69.32
2018-07-30T03:48:22.850Z,70.00
2018-07-30T03:49:22.898Z,70.57
2018-07-30T03:51:15.896Z,63.06
2018-07-30T03:52:15.959Z,63.06
2018-07-30T03:54:08.962Z,66.62
2018-07-30T03:55:09.023Z,67.30
2018-07-30T03:57:02.017Z,60.06
2018-07-30T03:58:02.137Z,59.78
2018-07-30T03:59:55.127Z,64.31
2018-07-30T04:00:55.144Z,63.34
2018-07-30T04:02:48.149Z,62.57
2018-07-30T04:03:48.202Z,63.06
2018-07-30T04:05:41.199Z,64.59
2018-07-30T04:06:41.271Z,64.50
2018-07-30T04:08:34.273Z,65.95
2018-07-30T04:09:34.333Z,64.69
2018-07-30T04:11:27.332Z,66.62
2018-07-30T04:12:27.395Z,66.08
2018-07-30T04:14:20.408Z,66.43
2018-07-30T04:15:20.469Z,65.78
2018-07-30T04:17:13.466Z,66.62
2018-07-30T04:18:13.532Z,65.11
2018-07-30T04:20:06.536Z,65.50
2018-07-30T04:21:06.593Z,65.47
2018-07-30T04:22:59.594Z,66.56
2018-07-30T04:23:59.963Z,66.56
2018-07-30T04:25:52.656Z,66.24
2018-07-30T04:26:52.716Z,67.33
2018-07-30T04:28:45.726Z,66.72
2018-07-30T04:29:45.788Z,60.58
2018-07-30T04:31:39.295Z,65.59
2018-07-30T04:32:39.359Z,66.56
2018-07-30T04:34:32.361Z,65.78
2018-07-30T04:35:32.420Z,63.57
2018-07-30T04:37:25.420Z,67.62
2018-07-30T04:38:25.480Z,67.71
2018-07-30T04:40:18.487Z,68.59
2018-07-30T04:41:18.545Z,66.75
2018-07-30T04:43:11.544Z,67.71
2018-07-30T04:44:11.606Z,68.01
2018-07-30T04:46:04.610Z,67.04
2018-07-30T04:47:04.670Z,68.43
2018-07-30T04:48:57.673Z,68.23
2018-07-30T04:49:57.733Z,68.10
2018-07-30T04:51:50.728Z,68.19
2018-07-30T04:52:50.795Z,65.88
2018-07-30T04:54:43.798Z,67.17
2018-07-30T04:55:43.857Z,67.55
2018-07-30T04:57:36.854Z,66.69
2018-07-30T04:58:36.919Z,66.49
2018-07-30T05:00:29.925Z,61.96
2018-07-30T05:01:29.984Z,68.04
2018-07-30T05:03:22.985Z,71.12
2018-07-30T05:04:23.053Z,72.13
2018-07-30T05:06:16.050Z,71.16
2018-07-30T05:07:16.115Z,72.13
2018-07-30T05:09:09.113Z,73.77
2018-07-30T05:10:09.174Z,73.86
2018-07-30T05:12:02.171Z,73.86
2018-07-30T05:13:02.238Z,74.06
2018-07-30T05:14:55.243Z,74.83
2018-07-30T05:15:55.300Z,75.02
2018-07-30T05:17:48.299Z,73.96
2018-07-30T05:18:48.367Z,74.25
2018-07-30T05:20:41.368Z,73.86
2018-07-30T05:21:41.429Z,74.73
2018-07-30T05:23:34.426Z,75.02
2018-07-30T05:24:34.493Z,75.27
2018-07-30T05:26:27.498Z,75.31
2018-07-30T05:27:27.555Z,75.41
2018-07-30T05:29:20.571Z,74.44
2018-07-30T05:30:20.619Z,75.99
2018-07-30T05:32:14.124Z,76.47
2018-07-30T05:33:14.187Z,76.37
2018-07-30T05:35:07.194Z,76.18
2018-07-30T05:36:07.254Z,76.12
2018-07-30T05:38:00.247Z,77.00
2018-07-30T05:39:00.314Z,76.90
2018-07-30T05:40:53.320Z,76.12
2018-07-30T05:41:53.378Z,75.06
2018-07-30T05:43:46.374Z,77.19
2018-07-30T05:44:46.440Z,76.74
2018-07-30T05:46:39.444Z,76.74
2018-07-30T05:47:39.506Z,76.97
2018-07-30T05:49:32.505Z,75.52
2018-07-30T05:50:32.572Z,75.04
2018-07-30T05:52:25.574Z,74.11
2018-07-30T05:53:25.636Z,73.95
2018-07-30T05:55:18.652Z,71.37
2018-07-30T05:56:18.700Z,70.89
2018-07-30T05:58:11.704Z,71.31
2018-07-30T05:59:11.776Z,69.76
2018-07-30T06:01:04.777Z,68.63
2018-07-30T06:02:04.838Z,68.63
2018-07-30T06:03:57.836Z,71.25
2018-07-30T06:04:57.904Z,70.76
2018-07-30T06:06:50.907Z,70.18
2018-07-30T06:07:50.970Z,70.47
2018-07-30T06:09:44.039Z,74.12
2018-07-30T06:10:44.034Z,72.18
2018-07-30T06:12:37.043Z,70.47
2018-07-30T06:13:37.102Z,70.18
2018-07-30T06:15:30.106Z,68.28
2018-07-30T06:16:30.169Z,68.12
2018-07-30T06:18:23.172Z,68.15
2018-07-30T06:19:23.234Z,66.34
2018-07-30T06:21:16.240Z,59.63
2018-07-30T06:22:16.301Z,57.31
2018-07-30T06:24:09.299Z,51.76
2018-07-30T06:25:09.374Z,48.99
2018-07-30T06:27:02.376Z,45.25
2018-07-30T06:28:02.442Z,43.92
2018-07-30T06:29:55.439Z,43.19
2018-07-30T06:30:55.509Z,42.72
2018-07-30T06:32:48.520Z,41.00
2018-07-30T06:33:48.581Z,40.21
2018-07-30T06:35:41.591Z,39.07
2018-07-30T06:36:41.660Z,38.01
2018-07-30T06:38:34.767Z,37.43
2018-07-30T06:39:34.739Z,37.43
2018-07-30T06:41:27.753Z,37.05
2018-07-30T06:42:27.819Z,37.95
2018-07-30T06:44:20.830Z,36.78
2018-07-30T06:45:20.907Z,36.48
2018-07-30T06:47:13.918Z,38.30
2018-07-30T06:48:13.988Z,39.13
2018-07-30T06:50:06.999Z,39.34
2018-07-30T06:51:07.071Z,38.49
2018-07-30T06:53:00.092Z,36.00
2018-07-30T06:54:00.159Z,35.35
2018-07-30T06:55:53.177Z,34.39
2018-07-30T06:56:53.254Z,34.99
2018-07-30T06:58:46.275Z,33.54
2018-07-30T06:59:46.344Z,33.34
2018-07-30T07:01:39.367Z,33.37
2018-07-30T07:02:39.444Z,32.40
2018-07-30T07:04:32.464Z,32.91
2018-07-30T07:05:32.534Z,31.44
2018-07-30T07:07:25.566Z,30.65
2018-07-30T07:08:25.627Z,30.74
2018-07-30T07:10:18.649Z,32.14
2018-07-30T07:11:18.729Z,31.15
2018-07-30T07:13:11.754Z,33.01
2018-07-30T07:14:11.827Z,35.02
2018-07-30T07:16:04.848Z,36.00
2018-07-30T07:17:04.928Z,35.31
2018-07-30T07:18:57.954Z,34.78
2018-07-30T07:19:58.025Z,34.36
2018-07-30T07:21:51.049Z,33.70
2018-07-30T07:22:51.120Z,33.39
2018-07-30T07:24:44.146Z,35.28
2018-07-30T07:25:44.216Z,37.43
2018-07-30T07:27:37.241Z,35.22
2018-07-30T07:28:37.311Z,35.04
2018-07-30T07:30:30.333Z,34.46
2018-07-30T07:31:30.405Z,33.69
2018-07-30T07:33:23.430Z,32.06
2018-07-30T07:34:23.499Z,30.99
2018-07-30T07:36:16.539Z,32.92
2018-07-30T07:37:16.594Z,31.85
2018-07-30T07:39:09.621Z,29.37
2018-07-30T07:40:09.714Z,30.83
2018-07-30T07:42:02.712Z,33.52
2018-07-30T07:43:02.792Z,31.21
2018-07-30T07:44:55.864Z,30.70
2018-07-30T07:45:55.901Z,30.87
2018-07-30T07:47:48.906Z,32.87
2018-07-30T07:48:48.987Z,33.56
2018-07-30T07:50:42.113Z,34.20
2018-07-30T07:51:42.099Z,34.08
2018-07-30T07:53:35.108Z,36.11
2018-07-30T07:54:35.184Z,35.90
2018-07-30T07:56:28.209Z,36.49
2018-07-30T07:57:28.280Z,36.80
2018-07-30T07:59:21.303Z,38.48
2018-07-30T08:00:21.373Z,38.38
2018-07-30T08:02:14.389Z,36.45
2018-07-30T08:03:14.468Z,36.84
2018-07-30T08:05:07.503Z,35.38
2018-07-30T08:06:07.572Z,35.05
2018-07-30T08:08:00.573Z,33.49
2018-07-30T08:09:00.649Z,31.72
2018-07-30T08:10:53.706Z,33.87
2018-07-30T08:11:53.743Z,33.85
2018-07-30T08:13:46.759Z,34.44
2018-07-30T08:14:46.837Z,33.94
2018-07-30T08:16:39.860Z,35.97
2018-07-30T08:17:39.929Z,34.92
2018-07-30T08:19:32.953Z,33.56
2018-07-30T08:20:33.023Z,32.53
2018-07-30T08:22:26.042Z,31.08
2018-07-30T08:23:26.138Z,30.39
2018-07-30T08:25:19.154Z,28.75
2018-07-30T08:26:19.224Z,28.83
2018-07-30T08:28:12.246Z,29.20
2018-07-30T08:29:12.390Z,29.37
2018-07-30T08:31:05.353Z,30.41
2018-07-30T08:32:05.429Z,29.78
2018-07-30T08:33:58.451Z,28.86
2018-07-30T08:34:58.528Z,27.19
2018-07-30T08:36:51.555Z,28.51
2018-07-30T08:37:51.628Z,29.46
2018-07-30T08:39:44.661Z,28.32
2018-07-30T08:40:44.737Z,27.98
2018-07-30T08:42:37.757Z,31.20
2018-07-30T08:43:37.840Z,30.73
2018-07-30T08:45:30.867Z,31.67
2018-07-30T08:46:30.938Z,32.14
2018-07-30T08:48:23.962Z,32.69
2018-07-30T08:49:24.042Z,33.01
2018-07-30T08:51:17.083Z,33.75
2018-07-30T08:52:17.157Z,35.13
2018-07-30T08:54:10.178Z,35.15
2018-07-30T08:55:10.254Z,34.33
2018-07-30T08:57:03.283Z,34.89
2018-07-30T08:58:03.352Z,35.66
2018-07-30T08:59:56.370Z,35.26
2018-07-30T09:00:56.446Z,36.16
2018-07-30T09:02:49.471Z,35.47
2018-07-30T09:03:49.797Z,36.18
2018-07-30T09:05:42.567Z,35.21
2018-07-30T09:06:42.636Z,34.03
2018-07-30T09:08:35.658Z,36.03
2018-07-30T09:09:35.737Z,35.55
2018-07-30T09:11:28.764Z,36.09
2018-07-30T09:12:28.896Z,35.66
2018-07-30T09:14:21.844Z,32.42
2018-07-30T09:15:21.920Z,32.24
2018-07-30T09:17:15.021Z,30.69
2018-07-30T09:18:15.043Z,30.50
2018-07-30T09:20:08.578Z,31.57
2018-07-30T09:21:08.632Z,30.17
2018-07-30T09:23:01.655Z,30.38
2018-07-30T09:24:01.727Z,28.91
2018-07-30T09:25:54.754Z,31.32
2018-07-30T09:26:54.886Z,31.32
2018-07-30T09:28:47.857Z,31.24
2018-07-30T09:29:47.933Z,31.56
2018-07-30T09:31:40.956Z,30.98
2018-07-30T09:32:41.104Z,31.45
2018-07-30T09:34:34.061Z,33.62
2018-07-30T09:35:34.151Z,33.89
2018-07-30T09:37:27.168Z,34.18
2018-07-30T09:38:27.286Z,36.74
2018-07-30T09:40:20.262Z,35.93
2018-07-30T09:41:20.337Z,35.24
2018-07-30T09:43:13.359Z,37.04
2018-07-30T09:44:13.431Z,36.84
2018-07-30T09:46:06.451Z,37.87
2018-07-30T09:47:06.526Z,39.04
2018-07-30T09:48:59.550Z,39.61
2018-07-30T09:49:59.617Z,41.36
2018-07-30T09:51:52.643Z,38.65
2018-07-30T09:52:52.731Z,38.57
2018-07-30T09:54:45.725Z,38.20
2018-07-30T09:55:45.796Z,40.37
2018-07-30T09:57:40.388Z,38.39
2018-07-30T09:58:40.400Z,38.10
2018-07-30T10:00:33.418Z,38.49
2018-07-30T10:01:33.490Z,37.71
2018-07-30T10:03:28.024Z,38.57
2018-07-30T10:04:28.085Z,39.72
2018-07-30T10:06:21.180Z,40.09
2018-07-30T10:07:21.180Z,39.80
2018-07-30T10:09:14.186Z,40.37
2018-07-30T10:10:14.269Z,39.98
2018-07-30T10:12:07.284Z,40.88
2018-07-30T10:13:07.339Z,40.41
2018-07-30T10:15:00.350Z,39.61
2018-07-30T10:16:00.421Z,40.17
2018-07-30T10:17:53.449Z,39.12
2018-07-30T10:18:53.508Z,39.10
2018-07-30T10:20:46.511Z,40.37
2018-07-30T10:21:46.584Z,40.29
2018-07-30T10:23:39.599Z,40.11
2018-07-30T10:24:39.666Z,39.43
2018-07-30T10:26:33.180Z,42.38
2018-07-30T10:27:33.253Z,38.67
2018-07-30T10:29:26.269Z,39.15
2018-07-30T10:30:26.336Z,40.43
2018-07-30T10:32:20.850Z,40.14
2018-07-30T10:33:20.924Z,39.64
2018-07-30T10:35:13.940Z,41.13
2018-07-30T10:36:14.007Z,40.76
2018-07-30T10:38:07.148Z,40.08
2018-07-30T10:39:07.087Z,40.76
2018-07-30T10:41:00.098Z,41.15
2018-07-30T10:42:00.171Z,40.88
2018-07-30T10:43:53.185Z,40.25
2018-07-30T10:44:53.253Z,40.45
2018-07-30T10:46:46.260Z,40.58
2018-07-30T10:47:46.332Z,42.64
2018-07-30T10:49:39.348Z,41.36
2018-07-30T10:50:39.415Z,42.66
2018-07-30T10:52:32.425Z,40.90
2018-07-30T10:53:32.496Z,41.46
2018-07-30T10:55:25.506Z,41.97
2018-07-30T10:56:25.574Z,42.07
2018-07-30T10:58:18.592Z,42.58
2018-07-30T10:59:18.656Z,40.92
2018-07-30T11:01:11.663Z,39.66
2018-07-30T11:02:11.732Z,40.64
2018-07-30T11:04:04.754Z,40.56
2018-07-30T11:05:04.815Z,41.45
2018-07-30T11:06:57.825Z,42.52
2018-07-30T11:07:57.894Z,40.37
2018-07-30T11:09:50.910Z,40.76
2018-07-30T11:10:50.974Z,40.66
2018-07-30T11:12:43.984Z,40.08
2018-07-30T11:13:44.057Z,40.64
2018-07-30T11:15:37.075Z,40.84
2018-07-30T11:16:37.141Z,40.35
2018-07-30T11:18:30.155Z,40.94
2018-07-30T11:19:30.223Z,41.23
2018-07-30T11:21:23.228Z,41.42
2018-07-30T11:22:23.303Z,41.82
2018-07-30T11:24:16.316Z,41.25
2018-07-30T11:25:16.390Z,40.76
2018-07-30T11:27:09.392Z,40.56
2018-07-30T11:28:09.468Z,42.15
2018-07-30T11:30:02.482Z,39.51
2018-07-30T11:31:02.543Z,39.59
2018-07-30T11:32:55.555Z,40.84
2018-07-30T11:33:55.630Z,40.64
2018-07-30T11:35:48.651Z,41.62
2018-07-30T11:36:48.718Z,42.90
2018-07-30T11:38:41.723Z,42.55
2018-07-30T11:39:41.791Z,40.27
2018-07-30T11:41:34.810Z,40.84
2018-07-30T11:42:34.875Z,40.74
2018-07-30T11:44:27.890Z,40.06
2018-07-30T11:45:27.958Z,41.72
2018-07-30T11:47:20.969Z,41.42
2018-07-30T11:48:21.092Z,41.35
2018-07-30T11:50:14.056Z,40.56
2018-07-30T11:51:14.120Z,42.23
2018-07-30T11:53:07.132Z,41.15
2018-07-30T11:54:07.267Z,40.78
2018-07-30T11:56:00.221Z,40.09
2018-07-30T11:57:00.284Z,40.51
2018-07-30T11:58:53.291Z,39.84
2018-07-30T11:59:53.366Z,39.64
2018-07-30T12:01:46.431Z,38.96
2018-07-30T12:02:46.451Z,38.76
2018-07-30T12:04:39.456Z,39.06
2018-07-30T12:05:39.525Z,39.94
2018-07-30T12:07:32.559Z,39.25
2018-07-30T12:08:32.627Z,39.03
2018-07-30T12:10:25.641Z,41.56
2018-07-30T12:11:25.707Z,40.09
2018-07-30T12:13:18.718Z,41.00
2018-07-30T12:14:18.786Z,40.11
2018-07-30T12:16:11.810Z,40.11
2018-07-30T12:17:11.867Z,40.01
2018-07-30T12:19:04.877Z,39.06
2018-07-30T12:20:04.947Z,38.07
2018-07-30T12:21:57.963Z,38.46
2018-07-30T12:22:58.028Z,37.78
2018-07-30T12:24:51.040Z,37.65
2018-07-30T12:25:51.114Z,38.04
2018-07-30T12:27:44.125Z,39.01
2018-07-30T12:28:44.192Z,39.23
2018-07-30T12:30:37.251Z,38.74
2018-07-30T12:31:37.270Z,39.00
2018-07-30T12:33:30.284Z,40.58
2018-07-30T12:34:30.352Z,40.78
2018-07-30T12:36:23.895Z,38.82
2018-07-30T12:37:23.938Z,38.43
2018-07-30T12:39:16.945Z,38.92
2018-07-30T12:40:17.016Z,39.70
2018-07-30T12:42:10.035Z,39.09
2018-07-30T12:43:10.100Z,38.82
2018-07-30T12:45:03.166Z,39.69
2018-07-30T12:46:03.186Z,39.76
2018-07-30T12:47:56.201Z,41.03
2018-07-30T12:48:56.272Z,40.95
2018-07-30T12:50:49.281Z,40.27
2018-07-30T12:51:49.349Z,41.27
2018-07-30T12:53:42.394Z,40.78
2018-07-30T12:54:42.438Z,40.09
2018-07-30T12:56:35.446Z,38.92
2018-07-30T12:57:35.517Z,38.92
2018-07-30T12:59:28.537Z,40.29
2018-07-30T13:00:28.601Z,39.41
2018-07-30T13:02:21.618Z,39.31
2018-07-30T13:03:21.682Z,38.53
2018-07-30T13:05:14.690Z,38.74
2018-07-30T13:06:14.760Z,39.11
2018-07-30T13:08:07.778Z,38.43
2018-07-30T13:09:07.842Z,37.74
2018-07-30T13:11:00.855Z,38.53
2018-07-30T13:12:00.928Z,40.78
2018-07-30T13:13:53.941Z,39.92
2018-07-30T13:14:54.005Z,37.66
2018-07-30T13:16:47.016Z,37.98
2018-07-30T13:17:47.084Z,38.37
2018-07-30T13:19:40.102Z,37.19
2018-07-30T13:20:40.163Z,37.38
2018-07-30T13:22:33.173Z,36.40
2018-07-30T13:23:33.242Z,36.30
2018-07-30T13:25:26.258Z,39.15
2018-07-30T13:26:26.397Z,38.46
2018-07-30T13:28:19.346Z,37.60
2018-07-30T13:29:19.412Z,37.01
2018-07-30T13:31:12.426Z,38.48
2018-07-30T13:32:12.497Z,38.09
2018-07-30T13:34:05.509Z,37.50
2018-07-30T13:35:05.576Z,37.99
2018-07-30T13:36:59.090Z,38.46
2018-07-30T13:37:59.163Z,38.76
2018-07-30T13:39:52.175Z,37.07
2018-07-30T13:40:52.241Z,39.14
2018-07-30T13:42:45.253Z,37.46
2018-07-30T13:43:45.319Z,37.46
2018-07-30T13:45:38.335Z,38.45
2018-07-30T13:46:38.399Z,37.46
2018-07-30T13:48:31.429Z,37.66
2018-07-30T13:49:31.484Z,36.09
2018-07-30T13:51:24.496Z,38.06
2018-07-30T13:52:24.563Z,37.27
2018-07-30T13:54:17.633Z,37.19
2018-07-30T13:55:17.648Z,37.38
2018-07-30T13:57:10.658Z,37.60
2018-07-30T13:58:10.727Z,37.50
2018-07-30T14:00:03.754Z,37.60
2018-07-30T14:01:03.805Z,37.01
2018-07-30T14:02:56.817Z,36.80
2018-07-30T14:03:56.887Z,36.21
2018-07-30T14:05:49.903Z,36.99
2018-07-30T14:06:50.042Z,37.58
2018-07-30T14:08:42.979Z,36.60
2018-07-30T14:09:43.052Z,36.21
2018-07-30T14:11:36.200Z,35.91
2018-07-30T14:12:36.142Z,35.83
2018-07-30T14:14:29.149Z,35.74
2018-07-30T14:15:29.223Z,37.21
2018-07-30T14:17:22.221Z,36.01
2018-07-30T14:18:22.295Z,35.52
2018-07-30T14:20:15.326Z,34.93
2018-07-30T14:21:15.373Z,35.21
2018-07-30T14:23:08.389Z,35.50
2018-07-30T14:24:08.459Z,35.99
2018-07-30T14:26:01.483Z,35.89
2018-07-30T14:27:01.556Z,35.42
2018-07-30T14:28:54.556Z,35.13
2018-07-30T14:29:54.627Z,35.72
2018-07-30T14:31:47.657Z,36.40
2018-07-30T14:32:47.734Z,35.91
2018-07-30T14:34:40.750Z,37.01
2018-07-30T14:35:40.806Z,34.67
2018-07-30T14:37:33.816Z,34.00
2018-07-30T14:38:33.888Z,36.16
2018-07-30T14:40:26.903Z,34.59
2018-07-30T14:41:26.970Z,34.49
2018-07-30T14:43:19.982Z,35.06
2018-07-30T14:44:20.051Z,34.58
2018-07-30T14:46:13.067Z,34.99
2018-07-30T14:47:13.132Z,35.55
2018-07-30T14:49:06.150Z,35.06
2018-07-30T14:50:06.215Z,35.46
2018-07-30T14:51:59.231Z,35.74
2018-07-30T14:52:59.298Z,35.54
2018-07-30T14:54:52.328Z,35.93
2018-07-30T14:55:52.380Z,36.13
2018-07-30T14:57:45.390Z,36.03
2018-07-30T14:58:45.465Z,37.11
2018-07-30T15:00:38.483Z,36.22
2018-07-30T15:01:38.547Z,36.52
2018-07-30T15:03:31.557Z,36.13
2018-07-30T15:04:31.629Z,36.13
2018-07-30T15:06:24.653Z,36.34
2018-07-30T15:07:24.722Z,37.03
2018-07-30T15:09:17.732Z,36.44
2018-07-30T15:10:17.802Z,35.28
2018-07-30T15:12:10.833Z,35.66
2018-07-30T15:13:10.890Z,37.03
2018-07-30T15:15:03.898Z,36.05
2018-07-30T15:16:03.980Z,36.82
2018-07-30T15:17:56.998Z,36.90
2018-07-30T15:18:57.058Z,36.90
2018-07-30T15:20:50.089Z,37.78
2018-07-30T15:21:50.147Z,37.48
2018-07-30T15:23:43.154Z,37.68
2018-07-30T15:24:43.225Z,36.99
2018-07-30T15:26:36.241Z,37.58
2018-07-30T15:27:36.306Z,37.09
2018-07-30T15:29:29.318Z,36.21
2018-07-30T15:30:29.387Z,36.60
2018-07-30T15:32:22.412Z,36.80
2018-07-30T15:33:22.473Z,37.76
2018-07-30T15:35:15.483Z,37.37
2018-07-30T15:36:15.553Z,36.19
2018-07-30T15:38:08.571Z,36.29
2018-07-30T15:39:08.637Z,36.51
2018-07-30T15:41:01.670Z,37.96
2018-07-30T15:42:01.744Z,37.76
2018-07-30T15:43:54.762Z,37.07
2018-07-30T15:44:54.826Z,36.68
2018-07-30T15:46:47.897Z,37.54
2018-07-30T15:47:47.906Z,36.27
2018-07-30T15:49:40.935Z,36.76
2018-07-30T15:50:41.014Z,36.86
2018-07-30T15:52:34.025Z,37.74
2018-07-30T15:53:34.091Z,38.62
2018-07-30T15:55:27.103Z,37.45
2018-07-30T15:56:27.179Z,37.54
2018-07-30T15:58:20.196Z,37.17
2018-07-30T15:59:20.260Z,37.17
2018-07-30T16:01:13.279Z,36.29
2018-07-30T16:02:13.349Z,36.39
2018-07-30T16:04:06.378Z,36.90
2018-07-30T16:05:06.434Z,36.90
2018-07-30T16:06:59.451Z,37.46
2018-07-30T16:07:59.514Z,37.46
2018-07-30T16:09:53.049Z,37.46
2018-07-30T16:10:53.097Z,36.86
2018-07-30T16:12:46.135Z,36.66
2018-07-30T16:13:46.191Z,36.86
2018-07-30T16:15:39.209Z,37.54
2018-07-30T16:16:39.283Z,37.04
2018-07-30T16:18:32.287Z,36.86
2018-07-30T16:19:32.354Z,36.76
2018-07-30T16:21:25.384Z,38.04
2018-07-30T16:22:25.449Z,37.94
2018-07-30T16:24:18.808Z,36.86
2018-07-30T16:25:18.557Z,37.25
2018-07-30T16:27:11.558Z,36.57
2018-07-30T16:28:11.630Z,37.15
2018-07-30T16:30:04.664Z,37.05
2018-07-30T16:31:04.826Z,37.45
2018-07-30T16:32:57.745Z,35.97
2018-07-30T16:33:57.813Z,35.68
2018-07-30T16:35:50.826Z,36.18
2018-07-30T16:36:50.888Z,35.00
2018-07-30T16:38:43.901Z,35.68
2018-07-30T16:39:43.966Z,36.86
2018-07-30T16:41:36.977Z,37.15
2018-07-30T16:42:37.046Z,36.86
2018-07-30T16:44:30.066Z,36.16
2018-07-30T16:45:30.135Z,37.13
2018-07-30T16:47:23.143Z,37.23
2018-07-30T16:48:23.216Z,37.43
2018-07-30T16:50:16.224Z,37.13
2018-07-30T16:51:16.291Z,37.05
2018-07-30T16:53:09.301Z,36.94
2018-07-30T16:54:09.371Z,37.65
2018-07-30T16:56:02.388Z,36.37
2018-07-30T16:57:02.451Z,38.51
2018-07-30T16:58:55.475Z,36.96
2018-07-30T16:59:55.554Z,36.96
2018-07-30T17:01:48.538Z,36.16
2018-07-30T17:02:48.609Z,37.43
2018-07-30T17:04:41.620Z,36.84
2018-07-30T17:05:41.687Z,37.92
2018-07-30T17:07:34.695Z,36.65
2018-07-30T17:08:35.089Z,37.52
2018-07-30T17:10:27.781Z,38.31
2018-07-30T17:11:27.847Z,37.52
2018-07-30T17:13:21.360Z,40.86
2018-07-30T17:14:21.434Z,38.80
2018-07-30T17:16:14.449Z,37.43
2018-07-30T17:17:14.517Z,37.52
2018-07-30T17:19:07.523Z,39.29
2018-07-30T17:20:07.594Z,40.64
2018-07-30T17:22:00.610Z,38.98
2018-07-30T17:23:00.677Z,38.39
2018-07-30T17:24:53.700Z,38.98
2018-07-30T17:25:53.765Z,38.59
2018-07-30T17:27:46.774Z,38.88
2018-07-30T17:28:46.994Z,38.68
2018-07-30T17:30:39.867Z,40.55
2018-07-30T17:31:39.932Z,40.84
2018-07-30T17:33:32.941Z,42.90
2018-07-30T17:34:33.009Z,41.99
2018-07-30T17:36:26.034Z,40.82
2018-07-30T17:37:26.174Z,38.96
2018-07-30T17:39:19.126Z,38.67
2018-07-30T17:40:19.190Z,38.57
2018-07-30T17:42:12.209Z,39.54
2018-07-30T17:43:12.269Z,38.67
2018-07-30T17:45:05.282Z,39.35
2018-07-30T17:46:05.347Z,39.35
2018-07-30T17:47:58.363Z,38.96
2018-07-30T17:48:58.428Z,40.03
2018-07-30T17:50:51.439Z,41.88
2018-07-30T17:51:51.505Z,40.60
2018-07-30T17:53:44.511Z,41.68
2018-07-30T17:54:44.583Z,42.25
2018-07-30T17:56:37.596Z,40.68
2018-07-30T17:57:37.660Z,41.36
2018-07-30T17:59:30.670Z,42.93
2018-07-30T18:00:30.740Z,43.62
2018-07-30T18:02:23.763Z,43.13
2018-07-30T18:03:23.818Z,42.91
2018-07-30T18:05:16.828Z,43.89
2018-07-30T18:06:16.896Z,43.01
2018-07-30T18:08:09.911Z,44.18
2018-07-30T18:09:09.976Z,43.49
2018-07-30T18:11:02.985Z,45.55
2018-07-30T18:12:03.057Z,44.67
2018-07-30T18:13:56.075Z,47.28
2018-07-30T18:14:56.144Z,48.16
2018-07-30T18:16:49.154Z,48.65
2018-07-30T18:17:49.224Z,48.55
2018-07-30T18:19:42.225Z,48.16
2018-07-30T18:20:42.294Z,47.56
2018-07-30T18:22:35.309Z,48.14
2018-07-30T18:23:35.371Z,47.56
2018-07-30T18:25:28.384Z,45.12
2018-07-30T18:26:28.455Z,48.54
2018-07-30T18:28:21.480Z,55.18
2018-07-30T18:29:21.533Z,59.08
2018-07-30T18:31:14.541Z,49.51
2018-07-30T18:32:14.614Z,46.48
2018-07-30T18:34:07.632Z,46.88